sensor_id;sensor_type;location;lat;lon;timestamp;temperature;humidity
58153;DHT22;43967;51.634;5.566;2022-11-13T00:04:45;19.80;73.60
58153;DHT22;43967;51.634;5.566;2022-11-13T00:09:46;19.80;72.90
58153;DHT22;43967;51.634;5.566;2022-11-13T00:14:47;19.90;72.80
58153;DHT22;43967;51.634;5.566;2022-11-13T00:19:48;19.80;72.50
58153;DHT22;43967;51.634;5.566;2022-11-13T00:24:49;19.90;72.20
58153;DHT22;43967;51.634;5.566;2022-11-13T00:29:50;19.90;72.00
58153;DHT22;43967;51.634;5.566;2022-11-13T00:34:52;19.90;71.70
58153;DHT22;43967;51.634;5.566;2022-11-13T00:39:53;19.90;71.30
58153;DHT22;43967;51.634;5.566;2022-11-13T00:44:54;19.90;71.20
58153;DHT22;43967;51.634;5.566;2022-11-13T00:49:55;19.90;71.10
58153;DHT22;43967;51.634;5.566;2022-11-13T00:54:56;19.80;70.80
58153;DHT22;43967;51.634;5.566;2022-11-13T00:59:57;19.80;70.70
58153;DHT22;43967;51.634;5.566;2022-11-13T01:04:58;19.80;70.50
58153;DHT22;43967;51.634;5.566;2022-11-13T01:09:59;19.80;70.40
58153;DHT22;43967;51.634;5.566;2022-11-13T01:15:00;19.80;70.20
58153;DHT22;43967;51.634;5.566;2022-11-13T01:20:02;19.80;70.10
58153;DHT22;43967;51.634;5.566;2022-11-13T01:25:04;19.80;69.90
58153;DHT22;43967;51.634;5.566;2022-11-13T01:30:05;19.80;69.70
58153;DHT22;43967;51.634;5.566;2022-11-13T01:35:07;19.70;69.60
58153;DHT22;43967;51.634;5.566;2022-11-13T01:40:10;19.70;69.30
58153;DHT22;43967;51.634;5.566;2022-11-13T01:50:55;19.70;68.90
58153;DHT22;43967;51.634;5.566;2022-11-13T01:55:56;19.70;68.80
58153;DHT22;43967;51.634;5.566;2022-11-13T02:00:57;19.70;68.70
58153;DHT22;43967;51.634;5.566;2022-11-13T02:05:58;19.70;68.50
58153;DHT22;43967;51.634;5.566;2022-11-13T02:10:59;19.60;68.40
58153;DHT22;43967;51.634;5.566;2022-11-13T02:16:01;19.60;68.20
58153;DHT22;43967;51.634;5.566;2022-11-13T02:21:21;19.60;68.10
58153;DHT22;43967;51.634;5.566;2022-11-13T02:26:28;19.60;68.00
58153;DHT22;43967;51.634;5.566;2022-11-13T02:31:31;19.60;67.90
58153;DHT22;43967;51.634;5.566;2022-11-13T02:36:33;19.60;67.90
58153;DHT22;43967;51.634;5.566;2022-11-13T02:41:35;19.60;67.80
58153;DHT22;43967;51.634;5.566;2022-11-13T02:46:36;19.60;67.70
58153;DHT22;43967;51.634;5.566;2022-11-13T02:51:37;19.60;67.60
58153;DHT22;43967;51.634;5.566;2022-11-13T02:56:39;19.50;67.50
58153;DHT22;43967;51.634;5.566;2022-11-13T03:01:40;19.60;67.40
58153;DHT22;43967;51.634;5.566;2022-11-13T03:06:41;19.50;67.20
58153;DHT22;43967;51.634;5.566;2022-11-13T03:11:43;19.50;67.20
58153;DHT22;43967;51.634;5.566;2022-11-13T03:16:44;19.50;67.00
58153;DHT22;43967;51.634;5.566;2022-11-13T03:21:45;19.50;66.90
58153;DHT22;43967;51.634;5.566;2022-11-13T03:26:46;19.50;66.80
58153;DHT22;43967;51.634;5.566;2022-11-13T03:31:47;19.50;66.80
58153;DHT22;43967;51.634;5.566;2022-11-13T03:36:48;19.50;66.80
58153;DHT22;43967;51.634;5.566;2022-11-13T03:41:49;19.50;66.70
58153;DHT22;43967;51.634;5.566;2022-11-13T03:46:50;19.40;66.50
58153;DHT22;43967;51.634;5.566;2022-11-13T03:51:51;19.50;66.50
58153;DHT22;43967;51.634;5.566;2022-11-13T03:56:52;19.50;66.50
58153;DHT22;43967;51.634;5.566;2022-11-13T04:01:53;19.40;66.40
58153;DHT22;43967;51.634;5.566;2022-11-13T04:06:55;19.40;66.30
58153;DHT22;43967;51.634;5.566;2022-11-13T04:11:56;19.40;66.20
58153;DHT22;43967;51.634;5.566;2022-11-13T04:16:58;19.40;66.20
58153;DHT22;43967;51.634;5.566;2022-11-13T04:21:59;19.40;66.10
58153;DHT22;43967;51.634;5.566;2022-11-13T04:27:00;19.40;66.10
58153;DHT22;43967;51.634;5.566;2022-11-13T04:32:02;19.40;66.00
58153;DHT22;43967;51.634;5.566;2022-11-13T04:37:03;19.40;65.90
58153;DHT22;43967;51.634;5.566;2022-11-13T04:42:04;19.30;65.90
58153;DHT22;43967;51.634;5.566;2022-11-13T04:47:05;19.30;65.80
58153;DHT22;43967;51.634;5.566;2022-11-13T04:52:07;19.40;65.80
58153;DHT22;43967;51.634;5.566;2022-11-13T04:57:08;19.30;65.70
58153;DHT22;43967;51.634;5.566;2022-11-13T05:02:09;19.30;65.70
58153;DHT22;43967;51.634;5.566;2022-11-13T05:07:10;19.30;65.50
58153;DHT22;43967;51.634;5.566;2022-11-13T05:12:11;19.30;65.50
58153;DHT22;43967;51.634;5.566;2022-11-13T05:17:12;19.30;65.50
58153;DHT22;43967;51.634;5.566;2022-11-13T05:22:13;19.30;65.40
58153;DHT22;43967;51.634;5.566;2022-11-13T05:27:14;19.30;65.40
58153;DHT22;43967;51.634;5.566;2022-11-13T05:32:15;19.30;65.30
58153;DHT22;43967;51.634;5.566;2022-11-13T05:37:17;19.30;65.30
58153;DHT22;43967;51.634;5.566;2022-11-13T05:42:18;19.30;65.20
58153;DHT22;43967;51.634;5.566;2022-11-13T05:47:19;19.30;65.20
58153;DHT22;43967;51.634;5.566;2022-11-13T05:52:20;19.20;65.00
58153;DHT22;43967;51.634;5.566;2022-11-13T05:57:21;19.30;65.00
58153;DHT22;43967;51.634;5.566;2022-11-13T06:02:22;19.20;65.00
58153;DHT22;43967;51.634;5.566;2022-11-13T06:07:23;19.20;64.90
58153;DHT22;43967;51.634;5.566;2022-11-13T06:12:24;19.20;64.80
58153;DHT22;43967;51.634;5.566;2022-11-13T06:17:25;19.20;64.70
58153;DHT22;43967;51.634;5.566;2022-11-13T06:22:26;19.20;64.70
58153;DHT22;43967;51.634;5.566;2022-11-13T06:27:27;19.20;64.50
58153;DHT22;43967;51.634;5.566;2022-11-13T06:32:28;19.20;64.60
58153;DHT22;43967;51.634;5.566;2022-11-13T06:37:29;19.20;64.50
58153;DHT22;43967;51.634;5.566;2022-11-13T06:42:30;19.20;64.30
58153;DHT22;43967;51.634;5.566;2022-11-13T06:47:32;19.20;64.40
58153;DHT22;43967;51.634;5.566;2022-11-13T06:52:33;19.20;64.30
58153;DHT22;43967;51.634;5.566;2022-11-13T06:57:34;19.20;64.20
58153;DHT22;43967;51.634;5.566;2022-11-13T07:02:35;19.20;64.20
58153;DHT22;43967;51.634;5.566;2022-11-13T07:07:36;19.10;64.10
58153;DHT22;43967;51.634;5.566;2022-11-13T07:12:37;19.10;64.00
58153;DHT22;43967;51.634;5.566;2022-11-13T07:17:38;19.10;64.00
58153;DHT22;43967;51.634;5.566;2022-11-13T07:22:39;19.10;63.80
58153;DHT22;43967;51.634;5.566;2022-11-13T07:27:44;18.80;63.70
58153;DHT22;43967;51.634;5.566;2022-11-13T07:32:45;18.70;64.00
58153;DHT22;43967;51.634;5.566;2022-11-13T07:37:46;18.70;64.40
58153;DHT22;43967;51.634;5.566;2022-11-13T07:42:47;18.60;64.70
58153;DHT22;43967;51.634;5.566;2022-11-13T07:48:00;18.60;65.40
58153;DHT22;43967;51.634;5.566;2022-11-13T07:53:03;18.60;66.40
58153;DHT22;43967;51.634;5.566;2022-11-13T07:58:05;18.60;67.00
58153;DHT22;43967;51.634;5.566;2022-11-13T08:03:10;18.70;67.20
58153;DHT22;43967;51.634;5.566;2022-11-13T08:08:13;18.80;67.40
58153;DHT22;43967;51.634;5.566;2022-11-13T08:13:14;18.80;67.10
58153;DHT22;43967;51.634;5.566;2022-11-13T08:18:15;18.90;66.90
58153;DHT22;43967;51.634;5.566;2022-11-13T08:23:16;18.90;66.60
58153;DHT22;43967;51.634;5.566;2022-11-13T08:28:17;18.90;66.60
58153;DHT22;43967;51.634;5.566;2022-11-13T08:33:19;18.80;66.50
58153;DHT22;43967;51.634;5.566;2022-11-13T08:38:20;18.90;66.50
58153;DHT22;43967;51.634;5.566;2022-11-13T08:43:21;18.90;66.60
58153;DHT22;43967;51.634;5.566;2022-11-13T08:48:23;18.80;65.20
58153;DHT22;43967;51.634;5.566;2022-11-13T08:53:24;18.90;65.40
58153;DHT22;43967;51.634;5.566;2022-11-13T08:58:25;18.90;65.80
58153;DHT22;43967;51.634;5.566;2022-11-13T09:03:26;19.00;66.10
58153;DHT22;43967;51.634;5.566;2022-11-13T09:08:29;19.10;66.00
58153;DHT22;43967;51.634;5.566;2022-11-13T09:13:31;18.90;62.20
58153;DHT22;43967;51.634;5.566;2022-11-13T09:18:33;19.00;64.60
58153;DHT22;43967;51.634;5.566;2022-11-13T09:23:34;19.10;65.30
58153;DHT22;43967;51.634;5.566;2022-11-13T09:28:35;19.20;65.30
58153;DHT22;43967;51.634;5.566;2022-11-13T09:33:36;19.10;64.50
58153;DHT22;43967;51.634;5.566;2022-11-13T09:38:37;19.10;65.20
58153;DHT22;43967;51.634;5.566;2022-11-13T09:48:53;19.20;65.40
58153;DHT22;43967;51.634;5.566;2022-11-13T09:53:57;19.30;65.40
58153;DHT22;43967;51.634;5.566;2022-11-13T10:04:15;19.40;65.60
58153;DHT22;43967;51.634;5.566;2022-11-13T10:09:44;19.40;65.50
58153;DHT22;43967;51.634;5.566;2022-11-13T10:14:51;19.40;65.80
58153;DHT22;43967;51.634;5.566;2022-11-13T10:19:59;19.50;66.10
58153;DHT22;43967;51.634;5.566;2022-11-13T10:25:16;19.70;66.70
58153;DHT22;43967;51.634;5.566;2022-11-13T10:30:18;19.90;66.30
58153;DHT22;43967;51.634;5.566;2022-11-13T10:35:43;19.90;67.00
58153;DHT22;43967;51.634;5.566;2022-11-13T10:40:46;19.80;66.50
58153;DHT22;43967;51.634;5.566;2022-11-13T10:45:55;19.80;66.50
58153;DHT22;43967;51.634;5.566;2022-11-13T10:51:21;19.70;66.30
58153;DHT22;43967;51.634;5.566;2022-11-13T10:56:30;19.60;66.30
58153;DHT22;43967;51.634;5.566;2022-11-13T11:01:31;19.60;66.00
58153;DHT22;43967;51.634;5.566;2022-11-13T11:06:37;19.60;65.70
58153;DHT22;43967;51.634;5.566;2022-11-13T11:11:38;19.60;66.30
58153;DHT22;43967;51.634;5.566;2022-11-13T11:16:39;19.60;65.10
58153;DHT22;43967;51.634;5.566;2022-11-13T11:21:42;19.50;64.70
58153;DHT22;43967;51.634;5.566;2022-11-13T11:27:04;19.50;64.90
58153;DHT22;43967;51.634;5.566;2022-11-13T12:28:27;19.40;64.80
58153;DHT22;43967;51.634;5.566;2022-11-13T12:44:28;19.30;65.00
58153;DHT22;43967;51.634;5.566;2022-11-13T12:49:32;19.20;64.70
58153;DHT22;43967;51.634;5.566;2022-11-13T12:54:36;19.10;65.00
58153;DHT22;43967;51.634;5.566;2022-11-13T13:00:28;19.10;65.10
58153;DHT22;43967;51.634;5.566;2022-11-13T13:05:50;19.10;65.30
58153;DHT22;43967;51.634;5.566;2022-11-13T13:11:12;19.00;65.20
58153;DHT22;43967;51.634;5.566;2022-11-13T13:16:25;19.00;65.30
58153;DHT22;43967;51.634;5.566;2022-11-13T13:21:26;19.00;65.40
58153;DHT22;43967;51.634;5.566;2022-11-13T13:26:28;19.00;65.30
58153;DHT22;43967;51.634;5.566;2022-11-13T13:31:48;19.10;65.30
58153;DHT22;43967;51.634;5.566;2022-11-13T13:37:15;19.10;65.70
58153;DHT22;43967;51.634;5.566;2022-11-13T13:47:45;19.30;65.20
58153;DHT22;43967;51.634;5.566;2022-11-13T13:52:57;19.30;65.20
58153;DHT22;43967;51.634;5.566;2022-11-13T13:58:00;19.30;65.10
58153;DHT22;43967;51.634;5.566;2022-11-13T14:03:03;19.30;65.10
58153;DHT22;43967;51.634;5.566;2022-11-13T14:08:18;19.40;65.30
58153;DHT22;43967;51.634;5.566;2022-11-13T14:13:27;19.40;64.90
58153;DHT22;43967;51.634;5.566;2022-11-13T14:18:40;19.30;64.90
58153;DHT22;43967;51.634;5.566;2022-11-13T14:23:47;19.30;65.60
58153;DHT22;43967;51.634;5.566;2022-11-13T14:28:51;19.30;66.50
58153;DHT22;43967;51.634;5.566;2022-11-13T14:33:53;19.30;65.90
58153;DHT22;43967;51.634;5.566;2022-11-13T14:38:55;19.30;65.40
58153;DHT22;43967;51.634;5.566;2022-11-13T14:44:25;19.40;65.70
58153;DHT22;43967;51.634;5.566;2022-11-13T14:49:32;19.40;65.90
58153;DHT22;43967;51.634;5.566;2022-11-13T15:00:32;19.50;66.20
58153;DHT22;43967;51.634;5.566;2022-11-13T15:05:34;19.40;66.20
58153;DHT22;43967;51.634;5.566;2022-11-13T15:10:35;19.50;66.70
58153;DHT22;43967;51.634;5.566;2022-11-13T15:15:37;19.50;66.20
58153;DHT22;43967;51.634;5.566;2022-11-13T15:20:40;19.50;67.20
58153;DHT22;43967;51.634;5.566;2022-11-13T15:25:41;19.50;67.80
58153;DHT22;43967;51.634;5.566;2022-11-13T15:30:42;19.50;67.20
58153;DHT22;43967;51.634;5.566;2022-11-13T15:35:48;19.30;66.60
58153;DHT22;43967;51.634;5.566;2022-11-13T15:40:51;19.30;66.50
58153;DHT22;43967;51.634;5.566;2022-11-13T15:45:52;19.30;66.90
58153;DHT22;43967;51.634;5.566;2022-11-13T15:50:53;19.40;66.80
58153;DHT22;43967;51.634;5.566;2022-11-13T15:55:54;19.40;66.70
58153;DHT22;43967;51.634;5.566;2022-11-13T16:00:55;19.40;66.90
58153;DHT22;43967;51.634;5.566;2022-11-13T16:05:58;19.30;67.00
58153;DHT22;43967;51.634;5.566;2022-11-13T16:10:59;19.30;66.80
58153;DHT22;43967;51.634;5.566;2022-11-13T16:16:00;19.30;67.00
58153;DHT22;43967;51.634;5.566;2022-11-13T16:21:01;19.20;66.60
58153;DHT22;43967;51.634;5.566;2022-11-13T16:26:02;19.30;66.90
58153;DHT22;43967;51.634;5.566;2022-11-13T16:31:04;19.40;67.00
58153;DHT22;43967;51.634;5.566;2022-11-13T16:36:18;19.30;67.50
58153;DHT22;43967;51.634;5.566;2022-11-13T16:41:20;19.40;67.40
58153;DHT22;43967;51.634;5.566;2022-11-13T16:46:31;19.40;67.80
58153;DHT22;43967;51.634;5.566;2022-11-13T16:51:35;19.40;68.40
58153;DHT22;43967;51.634;5.566;2022-11-13T16:56:36;19.40;69.40
58153;DHT22;43967;51.634;5.566;2022-11-13T17:01:37;19.40;69.50
58153;DHT22;43967;51.634;5.566;2022-11-13T17:06:39;19.40;69.00
58153;DHT22;43967;51.634;5.566;2022-11-13T17:11:43;19.30;67.70
58153;DHT22;43967;51.634;5.566;2022-11-13T17:16:44;19.30;70.00
58153;DHT22;43967;51.634;5.566;2022-11-13T17:21:48;19.50;70.90
58153;DHT22;43967;51.634;5.566;2022-11-13T17:26:49;19.60;70.70
58153;DHT22;43967;51.634;5.566;2022-11-13T17:31:50;19.70;67.90
58153;DHT22;43967;51.634;5.566;2022-11-13T17:36:54;19.80;71.10
58153;DHT22;43967;51.634;5.566;2022-11-13T17:41:55;19.80;71.20
58153;DHT22;43967;51.634;5.566;2022-11-13T17:46:56;19.80;70.90
58153;DHT22;43967;51.634;5.566;2022-11-13T17:51:59;19.90;70.70
58153;DHT22;43967;51.634;5.566;2022-11-13T17:57:01;20.00;71.00
58153;DHT22;43967;51.634;5.566;2022-11-13T18:02:02;20.00;71.00
58153;DHT22;43967;51.634;5.566;2022-11-13T18:07:03;19.90;71.50
58153;DHT22;43967;51.634;5.566;2022-11-13T18:12:05;20.00;71.10
58153;DHT22;43967;51.634;5.566;2022-11-13T18:17:06;19.90;71.30
58153;DHT22;43967;51.634;5.566;2022-11-13T18:22:07;19.90;71.90
58153;DHT22;43967;51.634;5.566;2022-11-13T18:27:09;19.80;72.80
58153;DHT22;43967;51.634;5.566;2022-11-13T18:32:10;19.90;72.30
58153;DHT22;43967;51.634;5.566;2022-11-13T18:37:11;19.90;72.40
58153;DHT22;43967;51.634;5.566;2022-11-13T18:42:12;19.90;72.70
58153;DHT22;43967;51.634;5.566;2022-11-13T18:47:13;19.90;72.70
58153;DHT22;43967;51.634;5.566;2022-11-13T18:52:14;19.90;72.60
58153;DHT22;43967;51.634;5.566;2022-11-13T18:57:15;19.60;71.70
58153;DHT22;43967;51.634;5.566;2022-11-13T19:02:17;19.70;73.40
58153;DHT22;43967;51.634;5.566;2022-11-13T19:07:18;19.80;73.70
58153;DHT22;43967;51.634;5.566;2022-11-13T19:12:19;19.60;72.40
58153;DHT22;43967;51.634;5.566;2022-11-13T19:17:20;19.70;73.30
58153;DHT22;43967;51.634;5.566;2022-11-13T19:22:21;19.70;73.20
58153;DHT22;43967;51.634;5.566;2022-11-13T19:27:22;19.40;71.50
58153;DHT22;43967;51.634;5.566;2022-11-13T19:32:23;19.50;73.10
58153;DHT22;43967;51.634;5.566;2022-11-13T19:37:24;19.60;72.90
58153;DHT22;43967;51.634;5.566;2022-11-13T19:42:26;19.60;73.00
58153;DHT22;43967;51.634;5.566;2022-11-13T19:47:27;19.60;73.10
58153;DHT22;43967;51.634;5.566;2022-11-13T19:52:28;19.60;73.20
58153;DHT22;43967;51.634;5.566;2022-11-13T19:57:29;19.60;73.40
58153;DHT22;43967;51.634;5.566;2022-11-13T20:02:30;19.40;72.60
58153;DHT22;43967;51.634;5.566;2022-11-13T20:07:34;19.40;72.20
58153;DHT22;43967;51.634;5.566;2022-11-13T20:12:35;19.50;71.80
58153;DHT22;43967;51.634;5.566;2022-11-13T20:17:57;19.50;71.80
58153;DHT22;43967;51.634;5.566;2022-11-13T20:29:31;19.60;71.50
58153;DHT22;43967;51.634;5.566;2022-11-13T20:34:32;19.60;71.40
58153;DHT22;43967;51.634;5.566;2022-11-13T20:39:44;19.60;71.30
58153;DHT22;43967;51.634;5.566;2022-11-13T21:08:37;19.50;71.10
58153;DHT22;43967;51.634;5.566;2022-11-13T21:13:52;19.50;71.00
58153;DHT22;43967;51.634;5.566;2022-11-13T21:18:57;19.40;70.50
58153;DHT22;43967;51.634;5.566;2022-11-13T21:23:59;19.40;70.80
58153;DHT22;43967;51.634;5.566;2022-11-13T21:29:12;19.50;70.60
58153;DHT22;43967;51.634;5.566;2022-11-13T21:34:13;19.50;70.70
58153;DHT22;43967;51.634;5.566;2022-11-13T21:39:14;19.40;70.20
58153;DHT22;43967;51.634;5.566;2022-11-13T21:44:15;19.40;70.10
58153;DHT22;43967;51.634;5.566;2022-11-13T21:49:16;19.40;69.90
58153;DHT22;43967;51.634;5.566;2022-11-13T21:54:18;19.40;69.80
58153;DHT22;43967;51.634;5.566;2022-11-13T21:59:19;19.40;69.70
58153;DHT22;43967;51.634;5.566;2022-11-13T22:04:20;19.30;69.50
58153;DHT22;43967;51.634;5.566;2022-11-13T22:09:23;19.40;69.40
58153;DHT22;43967;51.634;5.566;2022-11-13T22:14:24;19.30;69.20
58153;DHT22;43967;51.634;5.566;2022-11-13T22:19:25;19.30;69.10
58153;DHT22;43967;51.634;5.566;2022-11-13T22:24:27;19.30;69.00
58153;DHT22;43967;51.634;5.566;2022-11-13T22:29:28;19.30;69.00
58153;DHT22;43967;51.634;5.566;2022-11-13T22:34:30;19.30;68.90
58153;DHT22;43967;51.634;5.566;2022-11-13T22:39:31;19.30;68.80
58153;DHT22;43967;51.634;5.566;2022-11-13T22:44:32;19.30;68.70
58153;DHT22;43967;51.634;5.566;2022-11-13T22:49:34;19.30;68.60
58153;DHT22;43967;51.634;5.566;2022-11-13T22:54:35;19.20;68.50
58153;DHT22;43967;51.634;5.566;2022-11-13T22:59:36;19.20;68.30
58153;DHT22;43967;51.634;5.566;2022-11-13T23:04:37;19.20;68.80
58153;DHT22;43967;51.634;5.566;2022-11-13T23:09:38;19.20;68.10
58153;DHT22;43967;51.634;5.566;2022-11-13T23:14:39;19.20;68.00
58153;DHT22;43967;51.634;5.566;2022-11-13T23:19:40;19.20;67.90
58153;DHT22;43967;51.634;5.566;2022-11-13T23:24:41;19.20;67.70
58153;DHT22;43967;51.634;5.566;2022-11-13T23:29:42;19.20;67.70
58153;DHT22;43967;51.634;5.566;2022-11-13T23:34:43;19.20;67.60
58153;DHT22;43967;51.634;5.566;2022-11-13T23:39:44;19.10;67.50
58153;DHT22;43967;51.634;5.566;2022-11-13T23:44:45;19.20;67.40
58153;DHT22;43967;51.634;5.566;2022-11-13T23:49:46;19.10;67.30
58153;DHT22;43967;51.634;5.566;2022-11-13T23:54:47;19.10;67.20
58153;DHT22;43967;51.634;5.566;2022-11-13T23:59:49;19.10;67.10
